Time;durP1;ratioP1;P1;durP2;ratioP2;P2;SDS_P1;SDS_P2;PMS_P1;PMS_P2;Temp;Humidity;BMP_temperature;BMP_pressure;BME280_temperature;BME280_humidity;BME280_pressure;Samples;Min_cycle;Max_cycle;Signal;HPM_P1;HPM_P2
2023/05/17 00:00:38;;;;;;;7.70;2.10;;;12.40;99.90;;;;;;4985007;28;20210;-32
2023/05/17 00:03:05;;;;;;;6.57;1.90;;;12.40;99.90;;;;;;4986157;28;20296;-32
2023/05/17 00:05:35;;;;;;;7.77;2.17;;;12.30;99.90;;;;;;4981072;28;20222;-32
2023/05/17 00:08:05;;;;;;;5.77;1.90;;;12.30;99.90;;;;;;4991409;28;20640;-31
2023/05/17 00:10:34;;;;;;;7.60;2.20;;;12.20;99.90;;;;;;5001422;28;20240;-31
2023/05/17 00:13:08;;;;;;;6.10;2.00;;;12.20;99.90;;;;;;5007244;28;20313;-32
2023/05/17 00:15:40;;;;;;;8.23;2.57;;;12.10;99.90;;;;;;5004719;28;20221;-32
2023/05/17 00:18:09;;;;;;;8.57;2.27;;;12.10;99.90;;;;;;4986953;28;20306;-32
2023/05/17 00:20:36;;;;;;;6.07;2.10;;;12.00;99.90;;;;;;4987293;28;20202;-32
2023/05/17 00:23:06;;;;;;;8.23;2.20;;;12.00;99.90;;;;;;4985587;28;20222;-33
2023/05/17 00:25:35;;;;;;;6.53;2.30;;;12.00;99.90;;;;;;4987471;28;20215;-31
2023/05/17 00:28:11;;;;;;;9.37;2.37;;;12.00;99.90;;;;;;5003969;28;20676;-32
2023/05/17 00:30:41;;;;;;;7.70;2.20;;;12.00;99.90;;;;;;4984172;28;20348;-32
2023/05/17 00:33:13;;;;;;;9.13;2.33;;;12.00;99.90;;;;;;4969327;28;20221;-32
2023/05/17 00:35:40;;;;;;;9.67;2.70;;;12.00;99.90;;;;;;4990032;28;20932;-32
2023/05/17 00:38:07;;;;;;;7.57;2.20;;;12.00;99.90;;;;;;4988706;28;20304;-32
2023/05/17 00:40:37;;;;;;;8.90;2.50;;;11.90;99.90;;;;;;4994502;28;20265;-32
2023/05/17 00:43:04;;;;;;;11.07;3.00;;;11.90;99.90;;;;;;4995911;28;20684;-32
2023/05/17 00:45:36;;;;;;;8.40;2.60;;;11.90;99.90;;;;;;4992785;28;20316;-32
2023/05/17 00:48:08;;;;;;;9.43;3.00;;;11.80;99.90;;;;;;5004734;28;20707;-31
2023/05/17 00:50:38;;;;;;;6.93;2.80;;;11.80;99.90;;;;;;4988019;28;20210;-32
2023/05/17 00:53:14;;;;;;;9.93;3.00;;;11.80;99.90;;;;;;4984507;28;20222;-32
2023/05/17 00:55:47;;;;;;;13.83;3.20;;;11.80;99.90;;;;;;5000007;28;20954;-32
2023/05/17 00:58:15;;;;;;;8.80;3.10;;;11.70;99.90;;;;;;4985037;28;20646;-32
2023/05/17 01:00:45;;;;;;;8.73;3.30;;;11.70;99.90;;;;;;4987322;28;20260;-32
2023/05/17 01:03:12;;;;;;;9.67;3.37;;;11.70;99.90;;;;;;4990024;28;20210;-32
2023/05/17 01:05:43;;;;;;;9.73;3.60;;;11.70;99.90;;;;;;4997955;28;20289;-31
2023/05/17 01:08:10;;;;;;;10.17;3.57;;;11.70;99.90;;;;;;4989606;28;20206;-32
2023/05/17 01:11:03;;;;;;;5.77;3.23;;;11.70;99.90;;;;;;4999479;28;20224;-32
2023/05/17 01:13:39;;;;;;;11.13;4.40;;;11.70;99.90;;;;;;5002514;28;20233;-32
2023/05/17 01:16:28;;;;;;;7.50;4.17;;;11.70;99.90;;;;;;4977398;28;20260;-32
2023/05/17 01:19:16;;;;;;;8.67;4.33;;;11.60;99.90;;;;;;4994315;28;20324;-31
2023/05/17 01:22:23;;;;;;;9.20;3.97;;;11.60;99.90;;;;;;4992780;28;20229;-32
2023/05/17 01:25:22;;;;;;;9.73;4.10;;;11.60;99.90;;;;;;4998329;28;20194;-31
2023/05/17 01:27:57;;;;;;;12.50;4.47;;;11.60;99.90;;;;;;5005119;28;20213;-31
2023/05/17 01:30:28;;;;;;;8.97;3.53;;;11.50;99.90;;;;;;4989709;28;20220;-31
2023/05/17 01:32:59;;;;;;;10.07;4.60;;;11.50;99.90;;;;;;4985716;28;20293;-32
2023/05/17 01:35:27;;;;;;;9.27;3.90;;;11.50;99.90;;;;;;4998397;28;20300;-32
2023/05/17 01:37:56;;;;;;;10.60;3.80;;;11.50;99.90;;;;;;5004320;28;20828;-36
2023/05/17 01:40:26;;;;;;;9.03;4.17;;;11.50;99.90;;;;;;4993976;28;20237;-36
2023/05/17 01:43:03;;;;;;;12.70;4.20;;;11.50;99.90;;;;;;4986736;28;20203;-36
2023/05/17 01:45:47;;;;;;;8.20;3.83;;;11.40;99.90;;;;;;4988525;28;20205;-36
2023/05/17 01:48:24;;;;;;;13.97;4.83;;;11.40;99.90;;;;;;4992669;28;20429;-35
2023/05/17 01:50:55;;;;;;;8.57;4.07;;;11.40;99.90;;;;;;5000936;28;20679;-36
2023/05/17 01:53:28;;;;;;;9.83;4.23;;;11.40;99.90;;;;;;4989259;28;20233;-36
2023/05/17 01:56:06;;;;;;;8.87;4.30;;;11.40;99.90;;;;;;4985841;28;20650;-36
2023/05/17 01:58:43;;;;;;;10.97;4.33;;;11.30;99.90;;;;;;4994426;28;20233;-36
2023/05/17 02:01:17;;;;;;;7.43;3.87;;;11.30;99.90;;;;;;4987759;28;20633;-37
2023/05/17 02:03:51;;;;;;;11.33;4.23;;;11.20;99.90;;;;;;4984345;28;20202;-36
2023/05/17 02:06:18;;;;;;;10.10;4.27;;;11.20;99.90;;;;;;4988687;28;20718;-36
2023/05/17 02:08:47;;;;;;;11.37;4.40;;;11.10;99.90;;;;;;4997591;28;20209;-36
2023/05/17 02:11:17;;;;;;;15.03;4.87;;;11.10;99.90;;;;;;5008516;28;20213;-36
2023/05/17 02:13:44;;;;;;;9.33;4.40;;;11.10;99.90;;;;;;5006401;28;20209;-36
2023/05/17 02:16:11;;;;;;;10.23;4.20;;;11.00;99.90;;;;;;4996239;28;20642;-36
2023/05/17 02:18:39;;;;;;;7.63;4.70;;;11.00;99.90;;;;;;4989262;28;20218;-36
2023/05/17 02:21:09;;;;;;;9.00;4.30;;;11.00;99.90;;;;;;4989103;28;20210;-36
2023/05/17 02:23:39;;;;;;;8.63;4.80;;;11.00;99.90;;;;;;4998502;28;20546;-36
2023/05/17 02:26:08;;;;;;;12.20;4.87;;;11.00;99.90;;;;;;5001431;28;20720;-36
2023/05/17 02:28:35;;;;;;;11.60;5.07;;;10.90;99.90;;;;;;5008873;28;20297;-31
2023/05/17 02:31:09;;;;;;;14.17;5.10;;;10.90;99.90;;;;;;5005467;28;20209;-32
2023/05/17 02:33:41;;;;;;;10.50;4.20;;;10.80;99.90;;;;;;5007153;28;20225;-33
2023/05/17 02:36:09;;;;;;;9.37;4.80;;;10.80;99.90;;;;;;5001729;28;20689;-32
2023/05/17 02:38:36;;;;;;;11.00;4.83;;;10.80;99.90;;;;;;4987668;28;20222;-32
2023/05/17 02:41:06;;;;;;;10.50;4.67;;;10.70;99.90;;;;;;4997937;28;20293;-32
2023/05/17 02:43:33;;;;;;;11.10;4.83;;;10.70;99.90;;;;;;4993747;28;20225;-32
2023/05/17 02:46:02;;;;;;;10.57;5.10;;;10.70;99.90;;;;;;4986384;28;20264;-32
2023/05/17 02:48:32;;;;;;;9.70;5.10;;;10.70;99.90;;;;;;5000223;28;20733;-32
2023/05/17 02:51:04;;;;;;;8.87;5.37;;;10.60;99.90;;;;;;5007927;28;20211;-32
2023/05/17 02:53:34;;;;;;;9.93;5.60;;;10.60;99.90;;;;;;5002234;28;20276;-32
2023/05/17 02:56:06;;;;;;;10.67;5.63;;;10.60;99.90;;;;;;4999853;28;20205;-32
2023/05/17 02:58:33;;;;;;;10.50;5.03;;;10.60;99.90;;;;;;5005251;28;20242;-32
2023/05/17 03:01:03;;;;;;;11.70;4.93;;;10.50;99.90;;;;;;5001595;28;20279;-31
2023/05/17 03:03:33;;;;;;;9.63;5.77;;;10.50;99.90;;;;;;4983163;28;20218;-32
2023/05/17 03:06:05;;;;;;;10.57;5.13;;;10.50;99.90;;;;;;5002428;28;20209;-32
2023/05/17 03:08:32;;;;;;;9.03;5.23;;;10.50;99.90;;;;;;4988128;28;20895;-32
2023/05/17 03:10:59;;;;;;;12.37;5.43;;;10.50;99.90;;;;;;4986624;28;20214;-32
2023/05/17 03:13:29;;;;;;;8.60;5.27;;;10.50;99.90;;;;;;4988481;28;20234;-32
2023/05/17 03:16:01;;;;;;;8.70;5.17;;;10.40;99.90;;;;;;4988542;28;20237;-32
2023/05/17 03:18:28;;;;;;;12.57;5.60;;;10.40;99.90;;;;;;4997428;28;20225;-32
2023/05/17 03:20:55;;;;;;;10.80;5.68;;;10.40;99.90;;;;;;4987238;28;20986;-36
2023/05/17 03:23:25;;;;;;;11.83;5.03;;;10.60;99.90;;;;;;4993993;28;20210;-36
2023/05/17 03:26:00;;;;;;;9.63;5.07;;;10.50;99.90;;;;;;4998295;28;20256;-36
2023/05/17 03:28:27;;;;;;;9.40;5.10;;;10.50;99.90;;;;;;4985712;28;20226;-36
2023/05/17 03:30:56;;;;;;;8.83;5.27;;;10.40;99.90;;;;;;4986301;28;20202;-36
2023/05/17 03:33:26;;;;;;;9.73;4.77;;;10.40;99.90;;;;;;4991757;28;20280;-36
2023/05/17 03:35:53;;;;;;;8.67;5.60;;;10.30;99.90;;;;;;4995399;28;20233;-36
2023/05/17 03:38:22;;;;;;;10.03;4.97;;;10.30;99.90;;;;;;4987335;28;20233;-36
2023/05/17 03:40:52;;;;;;;11.00;5.83;;;10.30;99.90;;;;;;4986697;28;20206;-36
2023/05/17 03:43:21;;;;;;;12.63;4.80;;;10.30;99.90;;;;;;4986872;28;20237;-36
2023/05/17 03:45:51;;;;;;;7.83;4.73;;;10.20;99.90;;;;;;4984655;28;20238;-36
2023/05/17 03:48:20;;;;;;;10.83;5.30;;;10.20;99.90;;;;;;4988198;28;20277;-36
2023/05/17 03:50:47;;;;;;;8.57;4.80;;;10.20;99.90;;;;;;4979286;28;20220;-36
2023/05/17 03:53:18;;;;;;;12.33;5.37;;;10.20;99.90;;;;;;4990204;28;20202;-36
2023/05/17 03:55:45;;;;;;;9.10;5.03;;;10.30;99.90;;;;;;5003719;28;20259;-36
2023/05/17 03:58:12;;;;;;;7.73;4.80;;;10.30;99.90;;;;;;5005005;28;20332;-37
2023/05/17 04:00:42;;;;;;;8.30;5.10;;;10.30;99.90;;;;;;4990015;28;20207;-36
2023/05/17 04:03:14;;;;;;;12.83;5.47;;;10.30;99.90;;;;;;4985205;28;20740;-36
2023/05/17 04:05:45;;;;;;;9.40;5.07;;;10.30;99.90;;;;;;4985656;28;20198;-36
2023/05/17 04:08:15;;;;;;;10.80;5.60;;;10.30;99.90;;;;;;4987613;28;20945;-36
2023/05/17 04:10:42;;;;;;;7.03;4.80;;;10.30;99.90;;;;;;4989131;28;20233;-36
2023/05/17 04:13:09;;;;;;;8.63;5.13;;;10.30;99.90;;;;;;4987035;28;20627;-36
2023/05/17 04:15:39;;;;;;;12.00;5.03;;;10.30;99.90;;;;;;4969066;28;20210;-36
2023/05/17 04:18:06;;;;;;;11.47;6.00;;;10.30;99.90;;;;;;4991322;28;20562;-36
2023/05/17 04:20:33;;;;;;;10.13;5.93;;;10.30;99.90;;;;;;5006686;28;20991;-37
2023/05/17 04:23:03;;;;;;;11.73;5.80;;;10.40;99.90;;;;;;4995094;28;20202;-36
2023/05/17 04:25:30;;;;;;;10.03;5.60;;;10.40;99.90;;;;;;4996245;28;20218;-36
2023/05/17 04:28:00;;;;;;;10.83;5.60;;;10.40;99.90;;;;;;4985876;28;20272;-37
2023/05/17 04:30:30;;;;;;;10.50;5.90;;;10.50;99.90;;;;;;4979539;28;20316;-36
2023/05/17 04:32:59;;;;;;;11.50;5.43;;;10.50;99.90;;;;;;5005641;28;20317;-36
2023/05/17 04:35:29;;;;;;;9.40;5.63;;;10.50;99.90;;;;;;5005319;28;20220;-36
2023/05/17 04:38:01;;;;;;;11.17;5.60;;;10.50;99.90;;;;;;4989080;28;20214;-36
2023/05/17 04:40:28;;;;;;;10.83;5.07;;;10.60;99.90;;;;;;4991379;28;20265;-36
2023/05/17 04:43:01;;;;;;;12.03;5.97;;;10.60;99.90;;;;;;4994272;28;20722;-36
2023/05/17 04:45:29;;;;;;;14.53;6.27;;;10.70;99.90;;;;;;4983659;28;20234;-36
2023/05/17 04:48:00;;;;;;;9.40;5.50;;;10.70;99.90;;;;;;4984964;28;20225;-36
2023/05/17 04:50:32;;;;;;;10.03;5.33;;;10.80;99.90;;;;;;4988281;28;20228;-36
2023/05/17 04:52:59;;;;;;;9.43;5.70;;;10.80;99.90;;;;;;4986909;28;20233;-36
2023/05/17 04:55:29;;;;;;;9.83;5.53;;;10.80;99.90;;;;;;4984844;28;20302;-36
2023/05/17 04:57:59;;;;;;;10.13;5.03;;;10.90;99.90;;;;;;4983126;28;20238;-36
2023/05/17 05:00:26;;;;;;;10.50;5.60;;;10.90;99.90;;;;;;4984360;28;20222;-36
2023/05/17 05:02:56;;;;;;;9.00;5.93;;;11.00;99.90;;;;;;4986188;28;20206;-36
2023/05/17 05:05:24;;;;;;;10.20;5.63;;;11.00;99.90;;;;;;4992076;28;20268;-35
2023/05/17 05:07:51;;;;;;;9.33;5.67;;;11.00;99.90;;;;;;4990816;28;20226;-36
2023/05/17 05:10:18;;;;;;;8.50;5.17;;;11.10;99.90;;;;;;4994305;28;20213;-36
2023/05/17 05:12:46;;;;;;;9.70;5.90;;;11.10;99.90;;;;;;4992263;28;20213;-36
2023/05/17 05:15:15;;;;;;;10.53;6.00;;;11.20;99.90;;;;;;4999004;28;20304;-36
2023/05/17 05:17:49;;;;;;;8.73;5.60;;;11.20;99.90;;;;;;4991401;28;20577;-35
2023/05/17 05:20:23;;;;;;;13.40;6.00;;;11.30;99.90;;;;;;4994947;28;20224;-35
2023/05/17 05:22:57;;;;;;;9.80;6.27;;;11.30;99.90;;;;;;4998133;28;20849;-35
2023/05/17 05:25:27;;;;;;;13.00;6.10;;;11.40;99.90;;;;;;5005545;28;20739;-35
2023/05/17 05:27:55;;;;;;;8.77;5.80;;;11.50;99.90;;;;;;5005492;28;20624;-35
2023/05/17 05:30:24;;;;;;;13.33;6.57;;;11.50;99.90;;;;;;4996779;28;20636;-35
2023/05/17 05:32:54;;;;;;;9.33;6.13;;;11.60;99.90;;;;;;4994271;28;20663;-35
2023/05/17 05:35:29;;;;;;;13.87;6.90;;;11.60;99.90;;;;;;4991671;28;20212;-35
2023/05/17 05:37:58;;;;;;;11.20;6.57;;;11.70;99.90;;;;;;4991594;28;20262;-35
2023/05/17 05:40:27;;;;;;;11.17;6.77;;;11.70;99.90;;;;;;4990047;28;20295;-36
2023/05/17 05:42:57;;;;;;;11.80;7.20;;;11.80;99.90;;;;;;5002217;28;20198;-35
2023/05/17 05:45:26;;;;;;;17.27;7.50;;;11.90;99.90;;;;;;4998418;28;20221;-36
2023/05/17 05:47:56;;;;;;;9.40;6.13;;;11.90;99.90;;;;;;4996370;28;20214;-35
2023/05/17 05:50:23;;;;;;;12.73;6.90;;;12.00;99.90;;;;;;4992595;28;20256;-36
2023/05/17 05:52:56;;;;;;;10.87;6.47;;;12.00;99.90;;;;;;4996745;28;20210;-35
2023/05/17 05:55:46;;;;;;;10.90;6.50;;;12.10;99.90;;;;;;5001871;28;20275;-35
2023/05/17 05:58:15;;;;;;;14.33;6.67;;;12.20;99.90;;;;;;4998548;28;20344;-35
2023/05/17 06:00:43;;;;;;;11.50;6.53;;;12.30;99.90;;;;;;4989022;28;21107;-35
2023/05/17 06:03:10;;;;;;;11.07;6.00;;;12.40;99.90;;;;;;4994832;28;20230;-36
2023/05/17 06:05:39;;;;;;;19.37;6.90;;;12.40;99.90;;;;;;4990452;28;20817;-35
2023/05/17 06:08:07;;;;;;;11.70;6.33;;;12.50;99.90;;;;;;4989298;28;20225;-36
2023/05/17 06:10:37;;;;;;;13.20;7.07;;;12.60;99.90;;;;;;5001767;28;20206;-35
2023/05/17 06:13:04;;;;;;;13.60;7.30;;;12.60;99.90;;;;;;4992933;28;20863;-36
2023/05/17 06:15:31;;;;;;;11.80;6.67;;;12.70;99.90;;;;;;5005654;28;20576;-36
2023/05/17 06:18:03;;;;;;;12.13;6.43;;;12.80;99.90;;;;;;4999122;28;20766;-31
2023/05/17 06:20:31;;;;;;;12.40;6.10;;;12.90;99.90;;;;;;4989772;28;20795;-31
2023/05/17 06:22:58;;;;;;;10.23;6.90;;;12.90;99.90;;;;;;4987240;28;20213;-31
2023/05/17 06:25:28;;;;;;;13.37;6.07;;;13.00;99.90;;;;;;4999342;28;20896;-31
2023/05/17 06:27:55;;;;;;;12.77;6.30;;;13.10;99.90;;;;;;5003425;28;20202;-31
2023/05/17 06:30:22;;;;;;;13.37;6.57;;;13.20;99.90;;;;;;4991199;28;20373;-32
2023/05/17 06:32:50;;;;;;;12.63;6.80;;;13.20;99.90;;;;;;4997692;28;20208;-32
2023/05/17 06:35:17;;;;;;;13.27;6.53;;;13.30;99.90;;;;;;4986667;28;20233;-32
2023/05/17 06:37:44;;;;;;;12.77;6.53;;;13.40;99.90;;;;;;4996792;28;20209;-31
2023/05/17 06:40:14;;;;;;;11.83;5.67;;;13.50;99.90;;;;;;5001668;28;20601;-31
2023/05/17 06:42:50;;;;;;;16.20;6.77;;;13.60;99.90;;;;;;5001327;28;20738;-31
2023/05/17 06:45:25;;;;;;;9.53;6.00;;;13.60;99.90;;;;;;4997983;28;20461;-32
2023/05/17 06:47:55;;;;;;;11.23;6.43;;;13.70;99.90;;;;;;5005968;28;20226;-32
2023/05/17 06:50:27;;;;;;;10.70;5.60;;;13.80;99.90;;;;;;5006104;28;20883;-31
2023/05/17 06:52:59;;;;;;;12.30;5.90;;;13.80;99.90;;;;;;4999501;28;21039;-31
2023/05/17 06:55:26;;;;;;;15.23;6.27;;;13.90;99.90;;;;;;4998751;28;20961;-32
2023/05/17 06:58:02;;;;;;;12.60;5.80;;;14.00;99.90;;;;;;4998039;28;20244;-33
2023/05/17 07:00:31;;;;;;;12.17;5.60;;;14.10;99.90;;;;;;4996531;28;20222;-31
2023/05/17 07:03:01;;;;;;;11.97;6.50;;;14.20;99.90;;;;;;4987646;28;20694;-31
2023/05/17 07:05:29;;;;;;;13.75;6.05;;;14.20;99.90;;;;;;4986472;28;20204;-31
2023/05/17 07:07:58;;;;;;;13.43;6.30;;;14.30;99.90;;;;;;4972468;28;20570;-32
2023/05/17 07:10:27;;;;;;;14.55;6.78;;;14.40;99.90;;;;;;4997044;28;20245;-31
2023/05/17 07:12:58;;;;;;;14.63;5.93;;;14.40;99.90;;;;;;4989086;28;20206;-31
2023/05/17 07:15:27;;;;;;;13.50;6.10;;;14.50;99.90;;;;;;4986143;28;20992;-32
2023/05/17 07:17:55;;;;;;;12.53;5.57;;;14.50;99.90;;;;;;4988334;28;20280;-32
2023/05/17 07:20:27;;;;;;;11.23;6.63;;;14.60;99.90;;;;;;4987000;28;20230;-32
2023/05/17 07:22:55;;;;;;;11.68;5.90;;;14.60;99.90;;;;;;4986834;28;20194;-31
2023/05/17 07:25:24;;;;;;;14.77;5.80;;;14.70;99.90;;;;;;4987754;28;20206;-31
2023/05/17 07:27:51;;;;;;;12.47;6.67;;;14.70;99.90;;;;;;4987719;28;20646;-31
2023/05/17 07:30:19;;;;;;;13.53;6.50;;;14.80;99.90;;;;;;4987012;28;20214;-32
2023/05/17 07:32:48;;;;;;;15.67;5.30;;;14.80;99.90;;;;;;4986566;28;20291;-31
2023/05/17 07:35:16;;;;;;;11.45;5.32;;;14.80;99.90;;;;;;4988161;28;20300;-31
2023/05/17 07:37:48;;;;;;;9.40;5.30;;;14.80;99.90;;;;;;4988158;28;20198;-31
2023/05/17 07:40:22;;;;;;;15.40;5.75;;;14.80;99.90;;;;;;4986420;28;20226;-31
2023/05/17 07:42:52;;;;;;;12.00;5.17;;;14.70;99.90;;;;;;4986516;28;20953;-32
2023/05/17 07:45:20;;;;;;;12.23;4.50;;;14.70;99.90;;;;;;4986083;28;20260;-31
2023/05/17 07:47:49;;;;;;;14.52;4.40;;;14.70;99.90;;;;;;4989904;28;20256;-32
2023/05/17 07:50:16;;;;;;;11.75;4.00;;;14.80;99.90;;;;;;4986491;28;20210;-31
2023/05/17 07:52:48;;;;;;;9.88;4.07;;;14.80;99.90;;;;;;4987616;28;20730;-31
2023/05/17 07:55:19;;;;;;;9.00;3.63;;;14.80;99.90;;;;;;4987463;28;20235;-32
2023/05/17 07:57:48;;;;;;;13.57;4.57;;;14.90;99.90;;;;;;4987546;28;20712;-32
2023/05/17 08:00:18;;;;;;;7.93;4.35;;;14.90;99.90;;;;;;4986674;28;20337;-32
2023/05/17 08:02:48;;;;;;;9.88;4.03;;;15.00;99.90;;;;;;4985797;28;20203;-31
2023/05/17 08:05:15;;;;;;;12.73;4.30;;;15.00;99.90;;;;;;4988785;28;20280;-31
2023/05/17 08:07:45;;;;;;;9.77;3.42;;;15.10;99.90;;;;;;4987536;28;20202;-31
2023/05/17 08:10:17;;;;;;;12.10;3.55;;;15.10;99.90;;;;;;4992446;28;20225;-32
2023/05/17 08:12:48;;;;;;;10.38;3.63;;;15.10;99.90;;;;;;4990735;28;20313;-31
2023/05/17 08:15:16;;;;;;;9.13;3.53;;;15.20;99.90;;;;;;4986126;28;20218;-32
2023/05/17 08:17:43;;;;;;;8.35;3.90;;;15.20;99.90;;;;;;4990294;28;20217;-32
2023/05/17 08:20:11;;;;;;;8.02;3.53;;;15.30;99.90;;;;;;4992561;28;20377;-32
2023/05/17 08:22:39;;;;;;;9.05;3.33;;;15.30;99.90;;;;;;4985380;28;20269;-32
2023/05/17 08:25:07;;;;;;;11.05;3.35;;;15.30;99.90;;;;;;4993259;28;20682;-31
2023/05/17 08:27:40;;;;;;;13.63;3.85;;;15.40;99.90;;;;;;5001001;28;20283;-31
2023/05/17 08:30:27;;;;;;;13.40;3.83;;;15.40;99.90;;;;;;4988961;28;20244;-32
2023/05/17 08:32:58;;;;;;;8.40;3.67;;;15.40;99.90;;;;;;4992636;28;20310;-31
2023/05/17 08:35:26;;;;;;;11.77;3.92;;;15.40;99.90;;;;;;4981726;28;20203;-31
2023/05/17 08:37:57;;;;;;;8.52;3.28;;;15.40;99.90;;;;;;4988846;28;20683;-31
2023/05/17 08:40:27;;;;;;;12.33;4.13;;;15.50;99.90;;;;;;4991347;28;20631;-31
2023/05/17 08:42:54;;;;;;;9.98;4.05;;;15.50;99.90;;;;;;5003944;28;20213;-31
2023/05/17 08:45:29;;;;;;;9.48;3.60;;;15.50;99.90;;;;;;4999348;28;20256;-31
2023/05/17 08:48:00;;;;;;;12.65;4.25;;;15.60;99.90;;;;;;4982411;28;20600;-31
2023/05/17 08:50:34;;;;;;;12.77;3.88;;;15.60;99.90;;;;;;4990661;28;20428;-31
2023/05/17 08:53:01;;;;;;;10.88;3.55;;;15.60;99.90;;;;;;4985583;28;20206;-31
2023/05/17 08:55:36;;;;;;;18.33;4.82;;;15.60;99.90;;;;;;4980639;28;20300;-31
2023/05/17 08:58:05;;;;;;;10.95;3.83;;;15.70;99.90;;;;;;4985906;28;20296;-31
2023/05/17 09:00:34;;;;;;;11.93;4.18;;;15.70;99.90;;;;;;4987140;28;20218;-31
2023/05/17 09:03:04;;;;;;;10.55;4.13;;;15.70;99.90;;;;;;5002928;28;20584;-31
2023/05/17 09:05:35;;;;;;;11.50;4.13;;;15.70;99.90;;;;;;4987226;28;20305;-31
2023/05/17 09:08:12;;;;;;;9.95;3.13;;;15.70;99.90;;;;;;4986337;28;20546;-31
2023/05/17 09:10:44;;;;;;;8.43;3.40;;;15.70;99.90;;;;;;4993547;28;20998;-31
2023/05/17 09:13:12;;;;;;;7.90;2.97;;;15.80;99.90;;;;;;4966966;28;20215;-31
2023/05/17 09:15:48;;;;;;;11.23;3.13;;;15.70;99.90;;;;;;4988002;28;20205;-31
2023/05/17 09:18:18;;;;;;;7.85;3.17;;;15.70;99.90;;;;;;4983834;28;20585;-32
2023/05/17 09:20:53;;;;;;;10.00;3.10;;;15.70;99.90;;;;;;4989130;28;20316;-31
2023/05/17 09:23:21;;;;;;;9.32;2.80;;;15.60;99.90;;;;;;4999551;28;20288;-33
2023/05/17 09:25:49;;;;;;;7.85;2.60;;;15.60;99.90;;;;;;5002135;28;20205;-31
2023/05/17 09:28:21;;;;;;;9.50;3.08;;;15.70;99.90;;;;;;5000434;28;20210;-32
2023/05/17 09:30:51;;;;;;;6.55;2.72;;;15.70;99.90;;;;;;4982154;28;20205;-32
2023/05/17 09:33:21;;;;;;;9.45;2.88;;;15.70;99.90;;;;;;4993907;28;20205;-32
2023/05/17 09:35:51;;;;;;;5.43;2.50;;;15.70;99.90;;;;;;4995662;28;20202;-32
2023/05/17 09:38:27;;;;;;;9.35;2.35;;;15.70;99.90;;;;;;4996513;28;20523;-30
2023/05/17 09:41:01;;;;;;;9.35;2.83;;;15.80;99.90;;;;;;4989849;28;20648;-31
2023/05/17 09:43:33;;;;;;;7.78;2.92;;;15.90;99.90;;;;;;4997336;28;20228;-31
2023/05/17 09:46:06;;;;;;;7.07;2.60;;;15.80;99.90;;;;;;4999182;28;20225;-32
2023/05/17 09:48:37;;;;;;;9.33;3.03;;;15.80;99.90;;;;;;4986544;28;20228;-31
2023/05/17 09:51:10;;;;;;;9.43;2.50;;;15.90;99.90;;;;;;4992523;28;20297;-31
2023/05/17 09:53:41;;;;;;;10.52;2.88;;;15.90;99.90;;;;;;4996030;28;20205;-31
2023/05/17 09:56:10;;;;;;;9.52;2.80;;;15.90;99.90;;;;;;4986527;28;20226;-32
2023/05/17 09:58:44;;;;;;;11.70;2.80;;;16.00;99.90;;;;;;4984703;28;20532;-31
2023/05/17 10:01:17;;;;;;;12.20;3.25;;;15.90;99.90;;;;;;4985737;28;20221;-31
2023/05/17 10:03:49;;;;;;;8.80;3.17;;;15.90;99.90;;;;;;4985281;28;20570;-31
2023/05/17 10:06:22;;;;;;;6.70;2.03;;;15.90;99.90;;;;;;4983995;28;20210;-31
2023/05/17 10:09:15;;;;;;;9.90;2.90;;;15.90;99.90;;;;;;4986518;28;20281;-31
2023/05/17 10:11:49;;;;;;;13.82;2.97;;;15.90;99.90;;;;;;5000219;28;20204;-31
2023/05/17 10:14:21;;;;;;;12.55;2.83;;;15.90;99.90;;;;;;5001412;28;20299;-32
2023/05/17 10:16:53;;;;;;;10.02;2.25;;;15.90;99.90;;;;;;4990425;28;20272;-31
2023/05/17 10:19:20;;;;;;;6.95;2.28;;;16.00;99.90;;;;;;4987557;28;20205;-31
2023/05/17 10:21:50;;;;;;;10.48;3.22;;;16.00;99.90;;;;;;4988320;28;20230;-32
2023/05/17 10:24:21;;;;;;;11.27;2.67;;;16.00;99.90;;;;;;4981077;28;20210;-31
2023/05/17 10:26:54;;;;;;;9.90;2.38;;;16.10;99.90;;;;;;4984720;28;20657;-31
2023/05/17 10:29:22;;;;;;;11.00;3.13;;;16.20;99.90;;;;;;4999926;28;20222;-31
2023/05/17 10:31:50;;;;;;;12.27;2.92;;;16.20;99.90;;;;;;4998082;28;20213;-31
2023/05/17 10:34:19;;;;;;;13.98;3.00;;;16.20;99.90;;;;;;4997914;28;20507;-31
2023/05/17 10:36:52;;;;;;;8.27;2.40;;;16.20;99.90;;;;;;4961299;28;20289;-32
2023/05/17 10:39:20;;;;;;;7.93;2.35;;;16.30;99.90;;;;;;4995922;28;20222;-31
2023/05/17 10:41:56;;;;;;;10.07;2.35;;;16.30;99.90;;;;;;5005688;28;20662;-31
2023/05/17 10:44:43;;;;;;;9.85;2.38;;;16.20;99.90;;;;;;4988887;28;20676;-31
2023/05/17 10:47:13;;;;;;;5.75;2.17;;;16.20;99.90;;;;;;4978175;28;20194;-31
2023/05/17 10:49:46;;;;;;;9.20;2.97;;;16.30;99.90;;;;;;4992876;28;20281;-32
2023/05/17 10:52:20;;;;;;;8.80;2.40;;;16.30;99.90;;;;;;4990600;28;20198;-32
2023/05/17 10:54:50;;;;;;;9.55;2.42;;;16.30;99.90;;;;;;4993395;28;20205;-31
2023/05/17 10:57:40;;;;;;;6.22;2.50;;;16.30;99.90;;;;;;4987406;28;20653;-32
2023/05/17 11:00:21;;;;;;;8.85;2.50;;;16.40;99.90;;;;;;4987289;28;20548;-31
2023/05/17 11:02:50;;;;;;;9.75;2.40;;;16.40;99.90;;;;;;4994485;28;20256;-31
2023/05/17 11:05:26;;;;;;;8.82;2.67;;;16.40;99.90;;;;;;4993737;28;20523;-32
2023/05/17 11:08:16;;;;;;;12.30;3.08;;;16.50;99.90;;;;;;4996012;28;20653;-31
2023/05/17 11:11:06;;;;;;;10.95;2.35;;;16.50;99.90;;;;;;4979914;28;20568;-32
2023/05/17 11:13:34;;;;;;;7.70;2.58;;;16.50;99.90;;;;;;4985870;28;20304;-31
2023/05/17 11:16:06;;;;;;;9.93;3.00;;;16.50;99.90;;;;;;4989662;28;20218;-31
2023/05/17 11:19:04;;;;;;;7.32;2.75;;;16.60;99.90;;;;;;4983700;28;20213;-32
2023/05/17 11:21:32;;;;;;;8.18;2.30;;;16.70;99.90;;;;;;4995980;28;20237;-31
2023/05/17 11:24:05;;;;;;;8.60;2.90;;;16.70;99.90;;;;;;4992837;28;20210;-31
2023/05/17 11:26:46;;;;;;;8.50;2.83;;;16.80;99.90;;;;;;4983131;28;20199;-31
2023/05/17 11:29:16;;;;;;;12.02;2.97;;;16.80;99.90;;;;;;4989355;28;20221;-31
2023/05/17 11:31:51;;;;;;;10.00;2.97;;;16.90;99.90;;;;;;4999678;28;20954;-32
2023/05/17 11:34:24;;;;;;;8.00;2.83;;;16.90;99.90;;;;;;4990419;28;20651;-31
2023/05/17 11:36:57;;;;;;;10.88;3.10;;;17.00;99.90;;;;;;4995609;28;20272;-32
2023/05/17 11:39:25;;;;;;;12.57;2.60;;;17.00;99.90;;;;;;4973535;28;20218;-32
2023/05/17 11:41:54;;;;;;;7.75;2.72;;;17.00;99.90;;;;;;4992288;28;20775;-31
2023/05/17 11:44:31;;;;;;;8.38;2.50;;;17.10;99.90;;;;;;4987689;28;20305;-32
2023/05/17 11:47:08;;;;;;;9.68;2.45;;;17.10;99.90;;;;;;4995210;28;20233;-32
2023/05/17 11:49:39;;;;;;;10.13;2.67;;;17.10;99.90;;;;;;4983457;28;20464;-31
2023/05/17 11:52:09;;;;;;;5.85;1.77;;;17.00;99.90;;;;;;4991611;28;20996;-32
2023/05/17 11:54:39;;;;;;;9.18;2.90;;;17.00;99.90;;;;;;4982417;28;20732;-31
2023/05/17 11:57:10;;;;;;;9.77;2.60;;;17.00;99.90;;;;;;4984370;28;20269;-31
2023/05/17 11:59:38;;;;;;;7.25;2.60;;;17.00;99.90;;;;;;4993323;28;20260;-32
2023/05/17 12:02:06;;;;;;;9.65;2.80;;;17.00;99.90;;;;;;5000451;28;20430;-31
2023/05/17 12:04:37;;;;;;;9.93;2.95;;;16.90;98.90;;;;;;4972927;28;20214;-31
2023/05/17 12:07:09;;;;;;;6.22;1.90;;;16.90;99.80;;;;;;5002590;28;20197;-31
2023/05/17 12:09:39;;;;;;;8.45;2.35;;;16.90;99.50;;;;;;5001836;28;20202;-31
2023/05/17 12:12:09;;;;;;;8.40;2.22;;;16.90;98.80;;;;;;5002138;28;20229;-31
2023/05/17 12:14:37;;;;;;;8.80;2.15;;;16.90;99.00;;;;;;5002191;28;20205;-31
2023/05/17 12:17:12;;;;;;;6.30;2.30;;;16.80;98.90;;;;;;4998784;28;20768;-31
2023/05/17 12:19:39;;;;;;;6.10;1.92;;;16.90;98.40;;;;;;4986093;28;20544;-31
2023/05/17 12:22:11;;;;;;;8.20;1.80;;;16.80;99.80;;;;;;5003182;28;20241;-31
2023/05/17 12:24:42;;;;;;;10.35;2.17;;;16.80;98.90;;;;;;4991319;28;20699;-31
2023/05/17 12:27:23;;;;;;;6.55;1.80;;;16.80;99.00;;;;;;4985481;28;20651;-31
2023/05/17 12:29:50;;;;;;;6.43;1.75;;;16.90;99.30;;;;;;4986229;28;20217;-31
2023/05/17 12:32:20;;;;;;;8.20;2.10;;;16.90;98.40;;;;;;4983104;28;20202;-31
2023/05/17 12:34:48;;;;;;;10.10;2.13;;;16.80;98.10;;;;;;4994334;28;20206;-31
2023/05/17 12:37:17;;;;;;;8.77;1.80;;;16.80;97.90;;;;;;4984287;28;20206;-31
2023/05/17 12:39:51;;;;;;;8.05;2.00;;;16.80;97.80;;;;;;4989972;28;20300;-31
2023/05/17 12:42:21;;;;;;;6.70;1.92;;;16.90;98.30;;;;;;4984053;28;20311;-31
2023/05/17 12:44:50;;;;;;;8.27;2.25;;;16.90;97.70;;;;;;4982922;28;20205;-31
2023/05/17 12:47:17;;;;;;;5.22;1.67;;;16.90;97.70;;;;;;4981347;28;20202;-31
2023/05/17 12:49:53;;;;;;;10.00;2.15;;;17.00;97.40;;;;;;4984878;28;20198;-31
2023/05/17 12:52:21;;;;;;;10.35;2.00;;;16.90;97.50;;;;;;5001792;28;20221;-32
2023/05/17 12:54:51;;;;;;;3.67;1.52;;;16.90;97.20;;;;;;4994902;28;20256;-31
2023/05/17 12:57:23;;;;;;;6.00;1.70;;;16.90;97.00;;;;;;4965897;28;20340;-31
2023/05/17 12:59:53;;;;;;;5.55;1.70;;;17.00;97.30;;;;;;4991526;28;20259;-31
2023/05/17 13:02:30;;;;;;;8.30;1.85;;;17.00;96.50;;;;;;4996350;28;20237;-31